createdAt,value
2019-05-02T00:01:17.182Z,57.72
2019-05-02T00:03:45.866Z,57.34
2019-05-02T00:06:14.555Z,58.08
2019-05-02T00:08:43.213Z,57.97
2019-05-02T00:11:12.601Z,59.14
2019-05-02T00:13:41.492Z,60.15
2019-05-02T00:16:14.058Z,58.13
2019-05-02T00:18:41.310Z,58.27
2019-05-02T00:21:10.393Z,59.17
2019-05-02T00:23:39.134Z,59.80
2019-05-02T00:26:07.914Z,58.04
2019-05-02T00:28:36.606Z,58.40
2019-05-02T00:31:07.370Z,57.52
2019-05-02T00:33:36.168Z,58.11
2019-05-02T00:36:04.971Z,57.03
2019-05-02T00:38:38.611Z,56.48
2019-05-02T00:41:04.122Z,56.36
2019-05-02T00:43:34.586Z,57.28
2019-05-02T00:46:03.262Z,56.74
2019-05-02T00:48:33.520Z,57.04
2019-05-02T00:51:02.200Z,58.78
2019-05-02T00:53:31.219Z,56.21
2019-05-02T00:55:59.904Z,58.16
2019-05-02T00:58:31.971Z,59.01
2019-05-02T01:01:12.480Z,58.90
2019-05-02T01:03:47.158Z,58.13
2019-05-02T01:06:14.367Z,58.74
2019-05-02T01:08:44.074Z,58.56
2019-05-02T01:11:12.760Z,60.18
2019-05-02T01:13:41.377Z,58.98
2019-05-02T01:16:10.029Z,60.79
2019-05-02T01:18:41.350Z,57.64
2019-05-02T01:21:09.698Z,58.21
2019-05-02T01:23:38.347Z,56.17
2019-05-02T01:26:08.601Z,57.01
2019-05-02T01:28:49.151Z,57.67
2019-05-02T01:31:22.550Z,58.73
2019-05-02T01:33:52.864Z,58.53
2019-05-02T01:36:25.859Z,59.34
2019-05-02T01:38:54.569Z,57.86
2019-05-02T01:41:23.926Z,58.03
2019-05-02T01:43:55.014Z,57.43
2019-05-02T01:46:24.253Z,57.08
2019-05-02T01:48:52.893Z,56.41
2019-05-02T01:51:21.500Z,59.21
2019-05-02T01:53:50.192Z,60.47
2019-05-02T01:56:18.928Z,61.58
2019-05-02T01:58:47.625Z,61.28
2019-05-02T02:01:21.318Z,59.75
2019-05-02T02:03:47.040Z,60.24
2019-05-02T02:06:15.691Z,60.34
2019-05-02T02:08:44.312Z,60.84
2019-05-02T02:11:12.959Z,59.74
2019-05-02T02:13:41.661Z,59.29
2019-05-02T02:16:10.352Z,59.51
2019-05-02T02:18:43.387Z,59.49
2019-05-02T02:21:13.653Z,59.83
2019-05-02T02:23:49.652Z,59.81
2019-05-02T02:26:18.636Z,58.73
2019-05-02T02:28:47.338Z,57.63
2019-05-02T02:31:17.480Z,57.66
2019-05-02T02:33:48.133Z,57.48
2019-05-02T02:36:29.838Z,58.24
2019-05-02T02:38:47.242Z,57.08
2019-05-02T02:41:15.972Z,57.21
2019-05-02T02:43:46.637Z,58.12
2019-05-02T02:46:22.855Z,56.82
2019-05-02T02:48:51.560Z,56.09
2019-05-02T02:51:23.647Z,57.75
2019-05-02T02:54:02.871Z,56.51
2019-05-02T02:56:21.056Z,56.33
2019-05-02T02:58:49.662Z,55.83
2019-05-02T03:01:27.759Z,55.87
2019-05-02T03:03:48.667Z,54.62
2019-05-02T03:06:17.268Z,56.33
2019-05-02T03:08:49.176Z,57.27
2019-05-02T03:11:23.352Z,56.74
2019-05-02T03:14:06.148Z,57.23
2019-05-02T03:16:30.758Z,57.64
2019-05-02T03:18:59.440Z,56.24
2019-05-02T03:21:28.095Z,57.69
2019-05-02T03:24:03.410Z,56.22
2019-05-02T03:26:27.132Z,57.76
2019-05-02T03:28:58.675Z,55.93
2019-05-02T03:31:30.357Z,56.66
2019-05-02T03:34:00.722Z,55.61
2019-05-02T03:36:34.920Z,57.58
2019-05-02T03:38:58.854Z,59.23
2019-05-02T03:41:27.551Z,58.42
2019-05-02T03:44:10.491Z,57.06
2019-05-02T03:46:26.817Z,57.76
2019-05-02T03:49:06.236Z,59.51
2019-05-02T03:51:26.371Z,57.74
2019-05-02T03:54:05.729Z,58.39
2019-05-02T03:56:25.598Z,59.62
2019-05-02T03:58:56.374Z,58.86
2019-05-02T04:01:24.965Z,58.15
2019-05-02T04:03:54.163Z,56.39
2019-05-02T04:06:23.771Z,56.51
2019-05-02T04:08:58.706Z,57.33
2019-05-02T04:11:24.734Z,57.38
2019-05-02T04:13:54.277Z,57.83
2019-05-02T04:16:23.702Z,58.26
2019-05-02T04:18:55.624Z,57.67
2019-05-02T04:21:25.949Z,58.31
2019-05-02T04:23:53.917Z,55.76
2019-05-02T04:26:22.547Z,55.71
2019-05-02T04:28:52.127Z,55.68
2019-05-02T04:31:24.783Z,55.71
2019-05-02T04:33:54.385Z,55.16
2019-05-02T04:36:23.107Z,55.34
2019-05-02T04:38:52.564Z,56.59
2019-05-02T04:41:28.852Z,55.12
2019-05-02T04:43:57.536Z,55.28
2019-05-02T04:46:27.234Z,54.02
2019-05-02T04:48:53.286Z,56.79
2019-05-02T04:51:22.050Z,54.84
2019-05-02T04:53:50.741Z,55.23
2019-05-02T04:56:19.434Z,55.62
2019-05-02T04:58:49.560Z,54.58
2019-05-02T05:01:21.333Z,54.83
2019-05-02T05:03:57.400Z,54.53
2019-05-02T05:06:19.445Z,54.85
2019-05-02T05:08:48.508Z,54.30
2019-05-02T05:11:20.851Z,53.62
2019-05-02T05:13:48.041Z,55.76
2019-05-02T05:16:18.624Z,54.33
2019-05-02T05:18:49.477Z,53.57
2019-05-02T05:21:17.987Z,53.55
2019-05-02T05:23:51.846Z,52.95
2019-05-02T05:26:21.413Z,54.47
2019-05-02T05:28:50.103Z,53.70
2019-05-02T05:31:24.047Z,53.61
2019-05-02T05:33:49.176Z,53.12
2019-05-02T05:36:19.962Z,52.44
2019-05-02T05:38:48.207Z,51.35
2019-05-02T05:41:22.748Z,51.94
2019-05-02T05:43:50.032Z,53.05
2019-05-02T05:46:17.969Z,51.31
2019-05-02T05:48:47.650Z,51.93
2019-05-02T05:51:20.551Z,52.08
2019-05-02T05:53:47.901Z,51.21
2019-05-02T05:56:17.993Z,50.75
2019-05-02T05:58:50.835Z,52.52
2019-05-02T06:01:20.488Z,51.94
2019-05-02T06:03:47.698Z,52.54
2019-05-02T06:06:22.785Z,51.95
2019-05-02T06:08:49.253Z,50.21
2019-05-02T06:11:20.084Z,50.20
2019-05-02T06:13:48.917Z,51.26
2019-05-02T06:16:18.056Z,49.75
2019-05-02T06:18:46.809Z,49.50
2019-05-02T06:21:17.068Z,48.89
2019-05-02T06:23:46.210Z,49.48
2019-05-02T06:26:15.570Z,51.74
2019-05-02T06:28:44.549Z,48.94
2019-05-02T06:31:13.238Z,48.98
2019-05-02T06:33:41.955Z,47.56
2019-05-02T06:36:10.638Z,47.43
2019-05-02T06:38:39.330Z,47.96
2019-05-02T06:41:08.079Z,48.28
2019-05-02T06:43:41.281Z,48.33
2019-05-02T06:46:16.091Z,47.08
2019-05-02T06:48:37.638Z,47.93
2019-05-02T06:51:10.985Z,46.23
2019-05-02T06:53:41.463Z,47.07
2019-05-02T06:56:08.028Z,45.74
2019-05-02T06:58:42.092Z,44.44
2019-05-02T07:01:08.126Z,46.01
2019-05-02T07:03:41.436Z,45.95
2019-05-02T07:06:07.831Z,43.27
2019-05-02T07:08:37.575Z,44.08
2019-05-02T07:11:06.254Z,43.88
2019-05-02T07:13:36.150Z,43.18
2019-05-02T07:16:10.619Z,43.72
2019-05-02T07:18:47.541Z,43.82
2019-05-02T07:21:17.303Z,43.79
2019-05-02T07:23:48.721Z,43.53
2019-05-02T07:26:21.096Z,43.16
2019-05-02T07:28:47.532Z,44.29
2019-05-02T07:31:16.214Z,42.76
2019-05-02T07:33:44.837Z,43.16
2019-05-02T07:36:13.575Z,41.11
2019-05-02T07:38:42.261Z,42.55
2019-05-02T07:41:10.962Z,40.92
2019-05-02T07:43:39.685Z,39.28
2019-05-02T07:46:08.306Z,40.84
2019-05-02T07:48:37.001Z,41.24
2019-05-02T07:51:05.744Z,40.38
2019-05-02T07:53:34.543Z,40.55
2019-05-02T07:56:03.268Z,39.63
2019-05-02T07:58:31.994Z,38.98
2019-05-02T08:01:00.676Z,39.90
2019-05-02T08:03:33.422Z,40.00
2019-05-02T08:06:00.047Z,37.81
2019-05-02T08:08:29.930Z,36.01
2019-05-02T08:11:01.818Z,36.58
2019-05-02T08:13:31.408Z,36.81
2019-05-02T08:15:59.938Z,37.82
2019-05-02T08:18:30.361Z,38.38
2019-05-02T08:20:59.084Z,37.68
2019-05-02T08:23:27.954Z,36.80
2019-05-02T08:25:56.583Z,37.98
2019-05-02T08:28:26.874Z,37.31
2019-05-02T08:30:57.055Z,37.64
2019-05-02T08:33:29.280Z,37.43
2019-05-02T08:35:56.126Z,38.54
2019-05-02T08:38:24.746Z,37.28
2019-05-02T08:40:53.436Z,35.27
2019-05-02T08:43:22.162Z,36.14
2019-05-02T08:45:50.867Z,36.12
2019-05-02T08:48:22.487Z,36.78
2019-05-02T08:50:50.010Z,36.24
2019-05-02T08:53:19.684Z,35.85
2019-05-02T08:55:48.881Z,35.47
2019-05-02T08:58:17.533Z,34.91
2019-05-02T09:00:47.405Z,35.28
2019-05-02T09:03:16.312Z,34.95
2019-05-02T09:05:46.072Z,34.61
2019-05-02T09:08:16.672Z,36.37
2019-05-02T09:10:45.955Z,35.53
2019-05-02T09:13:18.017Z,36.38
2019-05-02T09:15:49.956Z,36.25
2019-05-02T09:18:15.432Z,35.51
2019-05-02T09:20:47.056Z,35.41
2019-05-02T09:23:14.526Z,34.47
2019-05-02T09:25:43.179Z,34.48
2019-05-02T09:28:12.495Z,35.15
2019-05-02T09:30:41.928Z,36.06
2019-05-02T09:33:11.723Z,36.58
2019-05-02T09:35:42.198Z,37.14
2019-05-02T09:38:12.953Z,35.54
2019-05-02T09:40:42.648Z,35.46
2019-05-02T09:43:12.182Z,35.60
2019-05-02T09:45:43.654Z,35.21
2019-05-02T09:48:12.531Z,35.21
2019-05-02T09:50:42.184Z,33.68
2019-05-02T09:53:13.052Z,33.11
2019-05-02T09:55:49.509Z,33.29
2019-05-02T09:58:18.962Z,33.68
2019-05-02T10:01:03.074Z,31.84
2019-05-02T10:03:32.124Z,31.54
2019-05-02T10:06:02.902Z,33.00
2019-05-02T10:08:32.139Z,33.72
2019-05-02T10:11:02.863Z,33.54
2019-05-02T10:13:32.876Z,31.97
2019-05-02T10:16:02.130Z,31.70
2019-05-02T10:18:32.923Z,32.19
2019-05-02T10:21:02.997Z,32.89
2019-05-02T10:23:32.183Z,32.01
2019-05-02T10:26:02.838Z,31.26
2019-05-02T10:28:31.781Z,33.28
2019-05-02T10:31:02.271Z,33.41
2019-05-02T10:33:33.681Z,32.57
2019-05-02T10:36:02.665Z,32.99
2019-05-02T10:38:32.596Z,32.05
2019-05-02T10:41:02.686Z,32.09
2019-05-02T10:43:32.916Z,31.35
2019-05-02T10:46:06.030Z,31.32
2019-05-02T10:48:36.294Z,31.45
2019-05-02T10:51:25.930Z,31.23
2019-05-02T10:53:56.435Z,32.84
2019-05-02T10:56:23.684Z,31.52
2019-05-02T10:58:52.430Z,30.69
2019-05-02T11:01:21.995Z,31.42
2019-05-02T11:03:52.236Z,30.55
2019-05-02T11:06:22.236Z,30.23
2019-05-02T11:08:52.381Z,29.74
2019-05-02T11:11:21.967Z,29.87
2019-05-02T11:13:55.433Z,28.76
2019-05-02T11:16:33.136Z,28.36
2019-05-02T11:19:06.547Z,27.43
2019-05-02T11:21:35.169Z,27.30
2019-05-02T11:24:03.860Z,25.67
2019-05-02T11:26:32.634Z,26.82
2019-05-02T11:29:03.038Z,26.23
2019-05-02T11:31:32.487Z,24.20
2019-05-02T11:34:01.865Z,25.17
2019-05-02T11:36:32.807Z,25.19
2019-05-02T11:39:10.503Z,25.99
2019-05-02T11:41:31.908Z,26.27
2019-05-02T11:44:02.810Z,26.27
2019-05-02T11:46:32.866Z,25.04
2019-05-02T11:49:02.372Z,26.87
2019-05-02T11:51:32.743Z,26.92
2019-05-02T11:54:05.115Z,26.22
2019-05-02T11:56:32.942Z,24.88
2019-05-02T11:59:02.799Z,25.91
2019-05-02T12:01:37.370Z,24.37
2019-05-02T12:04:02.988Z,24.57
2019-05-02T12:06:33.136Z,25.23
2019-05-02T12:09:02.239Z,27.76
2019-05-02T12:11:32.373Z,28.21
2019-05-02T12:14:01.752Z,27.76
2019-05-02T12:16:32.329Z,27.36
2019-05-02T12:19:11.159Z,27.54
2019-05-02T12:21:32.514Z,29.40
2019-05-02T12:24:02.243Z,29.90
2019-05-02T12:26:32.387Z,31.99
2019-05-02T12:29:02.661Z,33.61
2019-05-02T12:31:32.653Z,32.89
2019-05-02T12:34:03.297Z,32.91
2019-05-02T12:36:33.357Z,34.14
2019-05-02T12:39:02.545Z,32.72
2019-05-02T12:41:33.122Z,32.88
2019-05-02T12:44:02.359Z,33.13
2019-05-02T12:46:31.743Z,31.92
2019-05-02T12:49:02.620Z,32.57
2019-05-02T12:51:32.009Z,32.49
2019-05-02T12:54:02.319Z,32.03
2019-05-02T12:56:32.374Z,31.68
2019-05-02T12:59:02.885Z,31.33
2019-05-02T13:01:32.921Z,30.08
2019-05-02T13:04:03.459Z,28.87
2019-05-02T13:06:32.893Z,29.43
2019-05-02T13:09:03.111Z,29.04
2019-05-02T13:11:36.911Z,28.38
2019-05-02T13:14:18.383Z,29.06
2019-05-02T13:16:38.402Z,29.82
2019-05-02T13:19:07.440Z,30.40
2019-05-02T13:21:50.265Z,30.11
2019-05-02T13:24:29.507Z,30.27
2019-05-02T13:26:59.579Z,31.19
2019-05-02T13:29:28.328Z,33.74
2019-05-02T13:32:01.696Z,34.04
2019-05-02T13:34:32.087Z,35.40
2019-05-02T13:37:02.835Z,34.95
2019-05-02T13:39:38.993Z,33.94
2019-05-02T13:42:08.491Z,34.73
2019-05-02T13:44:54.803Z,33.47
2019-05-02T13:47:25.390Z,33.22
2019-05-02T13:49:58.009Z,32.45
2019-05-02T13:52:24.537Z,30.39
2019-05-02T13:54:53.645Z,31.71
2019-05-02T13:57:22.332Z,29.92
2019-05-02T13:59:52.508Z,30.31
2019-05-02T14:02:36.370Z,29.60
2019-05-02T14:05:12.777Z,28.80
2019-05-02T14:07:43.056Z,29.60
2019-05-02T14:10:22.831Z,29.84
2019-05-02T14:12:53.130Z,29.17
2019-05-02T14:15:23.531Z,30.74
2019-05-02T14:17:52.598Z,30.49
2019-05-02T14:20:22.541Z,30.38
2019-05-02T14:22:52.749Z,29.80
2019-05-02T14:25:22.355Z,30.44
2019-05-02T14:27:55.339Z,30.25
2019-05-02T14:30:36.069Z,31.80
2019-05-02T14:32:53.951Z,31.06
2019-05-02T14:35:36.089Z,31.33
2019-05-02T14:38:16.121Z,32.91
2019-05-02T14:40:48.373Z,33.34
2019-05-02T14:43:38.132Z,32.93
2019-05-02T14:46:05.305Z,32.02
2019-05-02T14:48:43.624Z,31.90
2019-05-02T14:51:07.347Z,31.12
2019-05-02T14:53:35.959Z,31.35
2019-05-02T14:56:22.904Z,30.79
2019-05-02T14:58:52.853Z,31.42
2019-05-02T15:01:25.834Z,31.97
2019-05-02T15:03:52.982Z,32.68
2019-05-02T15:06:23.642Z,32.63
2019-05-02T15:08:52.568Z,33.41
2019-05-02T15:11:30.349Z,33.46
2019-05-02T15:13:52.488Z,33.56
2019-05-02T15:16:26.178Z,34.10
2019-05-02T15:18:53.275Z,32.98
2019-05-02T15:21:22.789Z,33.21
2019-05-02T15:23:54.324Z,33.71
2019-05-02T15:26:26.210Z,33.25
2019-05-02T15:28:52.501Z,32.69
2019-05-02T15:31:34.325Z,32.40
2019-05-02T15:34:05.153Z,32.76
2019-05-02T15:36:37.140Z,31.63
2019-05-02T15:41:39.809Z,32.22
2019-05-02T15:44:08.651Z,31.86
2019-05-02T15:46:40.103Z,32.96
2019-05-02T15:49:07.803Z,32.35
2019-05-02T15:51:38.105Z,32.45
2019-05-02T15:54:08.895Z,32.57
2019-05-02T15:57:00.410Z,32.05
2019-05-02T15:59:37.562Z,32.31
2019-05-02T16:02:09.887Z,31.79
2019-05-02T16:04:41.784Z,32.30
2019-05-02T16:07:12.197Z,30.93
2019-05-02T16:09:41.641Z,31.72
2019-05-02T16:12:12.205Z,31.83
2019-05-02T16:14:42.450Z,31.88
2019-05-02T16:17:12.466Z,32.06
2019-05-02T16:19:42.969Z,32.00
2019-05-02T16:22:13.234Z,32.05
2019-05-02T16:24:43.951Z,32.03
2019-05-02T16:27:16.591Z,32.46
2019-05-02T16:29:43.734Z,32.09
2019-05-02T16:32:17.127Z,32.90
2019-05-02T16:34:56.119Z,32.78
2019-05-02T16:37:25.144Z,32.96
2019-05-02T16:39:53.824Z,32.69
2019-05-02T16:42:22.860Z,34.24
2019-05-02T16:44:54.435Z,34.53
2019-05-02T16:47:22.220Z,34.90
2019-05-02T16:49:53.424Z,35.77
2019-05-02T16:52:22.140Z,35.98
2019-05-02T16:54:52.714Z,35.30
2019-05-02T16:57:22.288Z,36.01
2019-05-02T16:59:53.990Z,35.68
2019-05-02T17:02:21.906Z,36.05
2019-05-02T17:04:52.062Z,35.76
2019-05-02T17:07:22.792Z,36.54
2019-05-02T17:10:14.770Z,36.34
2019-05-02T17:12:39.951Z,35.87
2019-05-02T17:15:31.110Z,36.07
2019-05-02T17:17:59.093Z,36.76
2019-05-02T17:20:27.789Z,36.89
2019-05-02T17:23:01.942Z,37.16
2019-05-02T17:25:26.925Z,37.92
2019-05-02T17:28:03.927Z,37.18
2019-05-02T17:30:33.638Z,38.52
2019-05-02T17:32:58.222Z,38.67
2019-05-02T17:35:27.054Z,37.63
2019-05-02T17:37:55.825Z,38.61
2019-05-02T17:40:26.127Z,38.67
2019-05-02T17:42:57.134Z,37.91
2019-05-02T17:45:25.520Z,36.66
2019-05-02T17:47:54.330Z,38.52
2019-05-02T17:50:42.223Z,38.34
2019-05-02T17:53:11.670Z,37.29
2019-05-02T17:55:42.675Z,37.55
2019-05-02T17:58:12.943Z,37.24
2019-05-02T18:00:47.460Z,37.73
2019-05-02T18:03:16.116Z,37.35
2019-05-02T18:05:44.837Z,36.86
2019-05-02T18:08:14.866Z,36.63
2019-05-02T18:10:43.762Z,37.12
2019-05-02T18:13:12.443Z,38.59
2019-05-02T18:15:41.690Z,38.69
2019-05-02T18:18:11.076Z,38.14
2019-05-02T18:20:42.671Z,38.61
2019-05-02T18:23:12.090Z,38.56
2019-05-02T18:25:40.556Z,37.76
2019-05-02T18:28:14.044Z,37.58
2019-05-02T18:30:41.606Z,36.94
2019-05-02T18:33:12.025Z,37.27
2019-05-02T18:35:45.225Z,36.87
2019-05-02T18:38:10.943Z,36.82
2019-05-02T18:40:39.672Z,37.93
2019-05-02T18:43:08.365Z,39.59
2019-05-02T18:45:37.064Z,39.02
2019-05-02T18:48:06.928Z,37.87
2019-05-02T18:50:44.286Z,38.70
2019-05-02T18:53:10.348Z,38.08
2019-05-02T18:55:42.026Z,38.45
2019-05-02T18:58:12.585Z,39.09
2019-05-02T19:00:43.152Z,38.76
2019-05-02T19:03:15.729Z,39.60
2019-05-02T19:05:42.463Z,38.85
2019-05-02T19:08:12.033Z,38.48
2019-05-02T19:10:44.699Z,40.22
2019-05-02T19:13:12.719Z,39.55
2019-05-02T19:15:45.287Z,40.69
2019-05-02T19:18:18.093Z,38.89
2019-05-02T19:20:57.586Z,38.93
2019-05-02T19:23:24.905Z,38.38
2019-05-02T19:25:53.587Z,37.59
2019-05-02T19:28:24.096Z,37.20
2019-05-02T19:30:52.776Z,37.86
2019-05-02T19:33:23.415Z,38.07
2019-05-02T19:35:52.573Z,38.84
2019-05-02T19:38:24.795Z,40.01
2019-05-02T19:40:52.087Z,38.15
2019-05-02T19:43:22.888Z,38.61
2019-05-02T19:45:54.016Z,37.63
2019-05-02T19:48:22.677Z,38.54
2019-05-02T19:50:51.870Z,40.84
2019-05-02T19:53:22.673Z,39.36
2019-05-02T19:55:51.989Z,39.37
2019-05-02T19:58:20.839Z,39.73
2019-05-02T20:00:49.621Z,41.45
2019-05-02T20:03:21.698Z,42.37
2019-05-02T20:05:49.047Z,40.79
2019-05-02T20:08:22.831Z,40.17
2019-05-02T20:10:49.270Z,40.80
2019-05-02T20:13:20.381Z,40.96
2019-05-02T20:15:52.266Z,40.07
2019-05-02T20:18:20.993Z,40.75
2019-05-02T20:20:58.500Z,39.64
2019-05-02T20:23:33.229Z,40.89
2019-05-02T20:25:59.075Z,41.46
2019-05-02T20:28:27.807Z,40.21
2019-05-02T20:30:56.489Z,40.28
2019-05-02T20:33:25.198Z,40.24
2019-05-02T20:35:53.845Z,40.92
2019-05-02T20:38:22.540Z,41.56
2019-05-02T20:40:52.261Z,41.43
2019-05-02T20:43:22.698Z,42.58
2019-05-02T20:45:52.787Z,42.94
2019-05-02T20:48:22.881Z,42.28
2019-05-02T20:50:52.042Z,42.75
2019-05-02T20:53:28.795Z,44.42
2019-05-02T20:55:52.368Z,44.81
2019-05-02T20:58:21.982Z,44.44
2019-05-02T21:01:05.060Z,44.31
2019-05-02T21:03:21.277Z,45.24
2019-05-02T21:05:54.268Z,45.90
2019-05-02T21:08:24.638Z,44.68
2019-05-02T21:10:54.912Z,43.87
2019-05-02T21:13:23.634Z,43.04
2019-05-02T21:15:52.518Z,43.81
2019-05-02T21:18:22.083Z,43.92
2019-05-02T21:20:52.541Z,42.57
2019-05-02T21:23:21.957Z,41.78
2019-05-02T21:25:52.498Z,41.68
2019-05-02T21:28:22.714Z,41.41
2019-05-02T21:30:52.421Z,42.49
2019-05-02T21:33:35.951Z,41.60
2019-05-02T21:36:04.971Z,41.00
2019-05-02T21:38:33.655Z,40.82
2019-05-02T21:41:02.491Z,41.75
2019-05-02T21:43:31.698Z,42.37
2019-05-02T21:46:02.369Z,43.47
2019-05-02T21:48:32.699Z,45.05
2019-05-02T21:51:05.896Z,43.71
2019-05-02T21:53:49.154Z,42.75
2019-05-02T21:56:14.042Z,41.12
2019-05-02T21:58:44.311Z,40.37
2019-05-02T22:01:14.454Z,43.29
2019-05-02T22:03:43.137Z,42.51
2019-05-02T22:06:12.319Z,41.29
2019-05-02T22:08:41.747Z,41.09
2019-05-02T22:11:12.229Z,40.75
2019-05-02T22:13:42.301Z,40.90
2019-05-02T22:16:12.996Z,41.87
2019-05-02T22:18:42.782Z,40.94
2019-05-02T22:21:12.312Z,43.21
2019-05-02T22:23:42.553Z,43.79
2019-05-02T22:26:12.719Z,44.59
2019-05-02T22:28:41.638Z,46.36
2019-05-02T22:31:12.263Z,43.11
2019-05-02T22:33:42.158Z,43.26
2019-05-02T22:36:12.395Z,42.97
2019-05-02T22:38:42.697Z,43.23
2019-05-02T22:41:12.534Z,42.11
2019-05-02T22:43:42.178Z,41.82
2019-05-02T22:46:14.079Z,43.18
2019-05-02T22:48:42.793Z,42.71
2019-05-02T22:51:12.054Z,42.10
2019-05-02T22:53:41.739Z,43.02
2019-05-02T22:56:11.751Z,42.08
2019-05-02T22:58:42.123Z,42.39
2019-05-02T23:01:10.849Z,46.72
2019-05-02T23:03:39.475Z,46.74
2019-05-02T23:06:08.179Z,45.87
2019-05-02T23:08:36.913Z,48.35
2019-05-02T23:11:05.615Z,46.79
2019-05-02T23:13:34.314Z,47.03
2019-05-02T23:16:03.039Z,46.42
2019-05-02T23:18:32.008Z,45.95
2019-05-02T23:21:02.173Z,45.01
2019-05-02T23:23:32.753Z,44.87
2019-05-02T23:26:12.860Z,46.60
2019-05-02T23:28:43.188Z,47.67
2019-05-02T23:31:14.071Z,49.00
2019-05-02T23:34:02.040Z,48.03
2019-05-02T23:36:32.453Z,47.48
2019-05-02T23:39:01.969Z,46.02
2019-05-02T23:41:32.724Z,45.28
2019-05-02T23:44:02.823Z,46.01
2019-05-02T23:46:31.547Z,45.54
2019-05-02T23:49:02.031Z,48.03
2019-05-02T23:51:32.141Z,47.80
2019-05-02T23:54:02.067Z,47.13
2019-05-02T23:56:32.551Z,46.79
2019-05-02T23:59:02.705Z,47.06
